sensor_id;sensor_type;location;lat;lon;timestamp;temperature;humidity
2024;DHT22;1016;48.770;9.154;2022-12-07T00:03:39;8.20;99.90
2024;DHT22;1016;48.770;9.154;2022-12-07T00:06:07;8.20;99.90
2024;DHT22;1016;48.770;9.154;2022-12-07T00:08:33;8.20;99.90
2024;DHT22;1016;48.770;9.154;2022-12-07T00:11:08;8.30;99.90
2024;DHT22;1016;48.770;9.154;2022-12-07T00:13:35;8.30;99.90
2024;DHT22;1016;48.770;9.154;2022-12-07T00:16:06;8.20;99.90
2024;DHT22;1016;48.770;9.154;2022-12-07T00:18:32;8.20;99.90
2024;DHT22;1016;48.770;9.154;2022-12-07T00:21:06;8.20;99.90
2024;DHT22;1016;48.770;9.154;2022-12-07T00:23:32;8.20;99.90
2024;DHT22;1016;48.770;9.154;2022-12-07T00:26:10;8.20;99.90
2024;DHT22;1016;48.770;9.154;2022-12-07T00:28:35;8.20;99.90
2024;DHT22;1016;48.770;9.154;2022-12-07T00:31:04;8.30;99.90
2024;DHT22;1016;48.770;9.154;2022-12-07T00:33:29;8.10;99.90
2024;DHT22;1016;48.770;9.154;2022-12-07T00:35:59;8.00;99.90
2024;DHT22;1016;48.770;9.154;2022-12-07T00:38:27;7.90;99.90
2024;DHT22;1016;48.770;9.154;2022-12-07T00:40:55;8.00;99.90
2024;DHT22;1016;48.770;9.154;2022-12-07T00:43:20;7.90;99.90
2024;DHT22;1016;48.770;9.154;2022-12-07T00:45:46;7.90;99.90
2024;DHT22;1016;48.770;9.154;2022-12-07T00:48:11;7.90;99.90
2024;DHT22;1016;48.770;9.154;2022-12-07T00:50:37;7.90;99.90
2024;DHT22;1016;48.770;9.154;2022-12-07T00:53:02;7.90;99.90
2024;DHT22;1016;48.770;9.154;2022-12-07T00:55:28;7.80;99.90
2024;DHT22;1016;48.770;9.154;2022-12-07T00:57:57;7.80;99.90
2024;DHT22;1016;48.770;9.154;2022-12-07T01:00:23;7.70;99.90
2024;DHT22;1016;48.770;9.154;2022-12-07T01:02:48;7.70;99.90
2024;DHT22;1016;48.770;9.154;2022-12-07T01:05:14;7.60;99.90
2024;DHT22;1016;48.770;9.154;2022-12-07T01:07:39;7.50;99.90
2024;DHT22;1016;48.770;9.154;2022-12-07T01:10:05;7.60;99.90
2024;DHT22;1016;48.770;9.154;2022-12-07T01:12:31;7.60;99.90
2024;DHT22;1016;48.770;9.154;2022-12-07T01:14:56;7.70;99.90
2024;DHT22;1016;48.770;9.154;2022-12-07T01:17:22;7.80;99.90
2024;DHT22;1016;48.770;9.154;2022-12-07T01:19:47;7.80;99.90
2024;DHT22;1016;48.770;9.154;2022-12-07T01:22:13;7.90;99.90
2024;DHT22;1016;48.770;9.154;2022-12-07T01:24:39;7.90;99.90
2024;DHT22;1016;48.770;9.154;2022-12-07T01:27:04;7.90;99.90
2024;DHT22;1016;48.770;9.154;2022-12-07T01:29:30;7.80;99.90
2024;DHT22;1016;48.770;9.154;2022-12-07T01:31:55;7.80;99.90
2024;DHT22;1016;48.770;9.154;2022-12-07T01:34:20;7.70;99.90
2024;DHT22;1016;48.770;9.154;2022-12-07T01:36:46;7.70;99.90
2024;DHT22;1016;48.770;9.154;2022-12-07T01:39:11;7.60;99.90
2024;DHT22;1016;48.770;9.154;2022-12-07T01:41:39;7.80;99.90
2024;DHT22;1016;48.770;9.154;2022-12-07T01:46:41;7.60;99.90
2024;DHT22;1016;48.770;9.154;2022-12-07T01:49:10;7.70;99.90
2024;DHT22;1016;48.770;9.154;2022-12-07T01:51:37;7.80;99.90
2024;DHT22;1016;48.770;9.154;2022-12-07T01:54:05;7.60;99.90
2024;DHT22;1016;48.770;9.154;2022-12-07T01:56:32;7.70;99.90
2024;DHT22;1016;48.770;9.154;2022-12-07T01:58:58;7.70;99.90
2024;DHT22;1016;48.770;9.154;2022-12-07T02:01:25;7.60;99.90
2024;DHT22;1016;48.770;9.154;2022-12-07T02:03:51;7.60;99.90
2024;DHT22;1016;48.770;9.154;2022-12-07T02:06:20;7.60;99.90
2024;DHT22;1016;48.770;9.154;2022-12-07T02:08:47;7.70;99.90
2024;DHT22;1016;48.770;9.154;2022-12-07T02:11:13;7.70;99.90
2024;DHT22;1016;48.770;9.154;2022-12-07T02:13:40;7.70;99.90
2024;DHT22;1016;48.770;9.154;2022-12-07T02:16:29;7.60;99.90
2024;DHT22;1016;48.770;9.154;2022-12-07T02:26:51;7.60;99.90
2024;DHT22;1016;48.770;9.154;2022-12-07T02:29:42;7.60;99.90
2024;DHT22;1016;48.770;9.154;2022-12-07T02:32:26;7.70;99.90
2024;DHT22;1016;48.770;9.154;2022-12-07T02:35:34;7.70;99.90
2024;DHT22;1016;48.770;9.154;2022-12-07T02:40:57;7.70;99.90
2024;DHT22;1016;48.770;9.154;2022-12-07T02:43:32;7.80;99.90
2024;DHT22;1016;48.770;9.154;2022-12-07T02:46:08;7.80;99.90
2024;DHT22;1016;48.770;9.154;2022-12-07T02:48:36;7.90;99.90
2024;DHT22;1016;48.770;9.154;2022-12-07T02:51:02;7.90;99.90
2024;DHT22;1016;48.770;9.154;2022-12-07T02:53:32;7.90;99.90
2024;DHT22;1016;48.770;9.154;2022-12-07T02:56:02;7.90;99.90
2024;DHT22;1016;48.770;9.154;2022-12-07T03:01:51;7.80;99.90
2024;DHT22;1016;48.770;9.154;2022-12-07T03:07:18;7.80;99.90
2024;DHT22;1016;48.770;9.154;2022-12-07T03:09:58;7.90;99.90
2024;DHT22;1016;48.770;9.154;2022-12-07T03:12:32;7.90;99.90
2024;DHT22;1016;48.770;9.154;2022-12-07T03:15:09;7.90;99.90
2024;DHT22;1016;48.770;9.154;2022-12-07T03:17:39;7.90;99.90
2024;DHT22;1016;48.770;9.154;2022-12-07T03:20:07;7.90;99.90
2024;DHT22;1016;48.770;9.154;2022-12-07T03:22:35;7.90;99.90
2024;DHT22;1016;48.770;9.154;2022-12-07T03:25:09;8.00;99.90
2024;DHT22;1016;48.770;9.154;2022-12-07T03:27:57;8.00;99.90
2024;DHT22;1016;48.770;9.154;2022-12-07T03:30:32;8.00;99.90
2024;DHT22;1016;48.770;9.154;2022-12-07T03:33:10;7.90;99.90
2024;DHT22;1016;48.770;9.154;2022-12-07T03:35:41;7.90;99.90
2024;DHT22;1016;48.770;9.154;2022-12-07T03:38:25;7.90;99.90
2024;DHT22;1016;48.770;9.154;2022-12-07T03:43:24;7.80;99.90
2024;DHT22;1016;48.770;9.154;2022-12-07T03:46:12;7.80;99.90
2024;DHT22;1016;48.770;9.154;2022-12-07T03:51:25;7.70;99.90
2024;DHT22;1016;48.770;9.154;2022-12-07T03:54:00;7.70;99.90
2024;DHT22;1016;48.770;9.154;2022-12-07T03:56:28;7.80;99.90
2024;DHT22;1016;48.770;9.154;2022-12-07T03:58:54;7.90;99.90
2024;DHT22;1016;48.770;9.154;2022-12-07T04:01:20;7.90;99.90
2024;DHT22;1016;48.770;9.154;2022-12-07T04:03:45;7.90;99.90
2024;DHT22;1016;48.770;9.154;2022-12-07T04:06:11;8.00;99.90
2024;DHT22;1016;48.770;9.154;2022-12-07T04:08:36;7.90;99.90
2024;DHT22;1016;48.770;9.154;2022-12-07T04:11:02;7.90;99.90
2024;DHT22;1016;48.770;9.154;2022-12-07T04:13:28;7.90;99.90
2024;DHT22;1016;48.770;9.154;2022-12-07T04:15:53;7.90;99.90
2024;DHT22;1016;48.770;9.154;2022-12-07T04:18:19;7.90;99.90
2024;DHT22;1016;48.770;9.154;2022-12-07T04:20:45;7.70;99.90
2024;DHT22;1016;48.770;9.154;2022-12-07T04:23:11;7.70;99.90
2024;DHT22;1016;48.770;9.154;2022-12-07T04:25:37;7.60;99.90
2024;DHT22;1016;48.770;9.154;2022-12-07T04:28:02;7.70;99.90
2024;DHT22;1016;48.770;9.154;2022-12-07T04:30:28;7.60;99.90
2024;DHT22;1016;48.770;9.154;2022-12-07T04:32:53;7.60;99.90
2024;DHT22;1016;48.770;9.154;2022-12-07T04:35:19;7.40;99.90
2024;DHT22;1016;48.770;9.154;2022-12-07T04:37:44;7.30;99.90
2024;DHT22;1016;48.770;9.154;2022-12-07T04:40:10;7.30;99.90
2024;DHT22;1016;48.770;9.154;2022-12-07T04:42:36;7.40;99.90
2024;DHT22;1016;48.770;9.154;2022-12-07T04:45:02;7.30;99.90
2024;DHT22;1016;48.770;9.154;2022-12-07T04:47:28;7.40;99.90
2024;DHT22;1016;48.770;9.154;2022-12-07T04:49:53;7.40;99.90
2024;DHT22;1016;48.770;9.154;2022-12-07T04:52:19;7.50;99.90
2024;DHT22;1016;48.770;9.154;2022-12-07T04:54:44;7.50;99.90
2024;DHT22;1016;48.770;9.154;2022-12-07T04:57:10;7.60;99.90
2024;DHT22;1016;48.770;9.154;2022-12-07T04:59:35;7.70;99.90
2024;DHT22;1016;48.770;9.154;2022-12-07T05:02:01;7.60;99.90
2024;DHT22;1016;48.770;9.154;2022-12-07T05:04:26;7.60;99.90
2024;DHT22;1016;48.770;9.154;2022-12-07T05:06:52;7.60;99.90
2024;DHT22;1016;48.770;9.154;2022-12-07T05:09:18;7.70;99.90
2024;DHT22;1016;48.770;9.154;2022-12-07T05:11:43;7.70;99.90
2024;DHT22;1016;48.770;9.154;2022-12-07T05:14:15;7.80;99.90
2024;DHT22;1016;48.770;9.154;2022-12-07T05:16:42;7.80;99.90
2024;DHT22;1016;48.770;9.154;2022-12-07T05:19:08;7.90;99.90
2024;DHT22;1016;48.770;9.154;2022-12-07T05:21:35;7.80;99.90
2024;DHT22;1016;48.770;9.154;2022-12-07T05:24:01;7.80;99.90
2024;DHT22;1016;48.770;9.154;2022-12-07T05:26:26;7.90;99.90
2024;DHT22;1016;48.770;9.154;2022-12-07T05:28:53;7.90;99.90
2024;DHT22;1016;48.770;9.154;2022-12-07T05:31:19;7.90;99.90
2024;DHT22;1016;48.770;9.154;2022-12-07T05:33:45;7.80;99.90
2024;DHT22;1016;48.770;9.154;2022-12-07T05:36:11;7.80;99.90
2024;DHT22;1016;48.770;9.154;2022-12-07T05:38:36;7.80;99.90
2024;DHT22;1016;48.770;9.154;2022-12-07T05:41:02;7.70;99.90
2024;DHT22;1016;48.770;9.154;2022-12-07T05:43:29;7.70;99.90
2024;DHT22;1016;48.770;9.154;2022-12-07T05:45:54;7.60;99.90
2024;DHT22;1016;48.770;9.154;2022-12-07T05:48:20;7.50;99.90
2024;DHT22;1016;48.770;9.154;2022-12-07T05:50:48;7.50;99.90
2024;DHT22;1016;48.770;9.154;2022-12-07T05:53:13;7.50;99.90
2024;DHT22;1016;48.770;9.154;2022-12-07T05:55:39;7.50;99.90
2024;DHT22;1016;48.770;9.154;2022-12-07T05:58:05;7.40;99.90
2024;DHT22;1016;48.770;9.154;2022-12-07T06:00:49;7.50;99.90
2024;DHT22;1016;48.770;9.154;2022-12-07T06:03:14;7.30;99.90
2024;DHT22;1016;48.770;9.154;2022-12-07T06:05:40;7.30;99.90
2024;DHT22;1016;48.770;9.154;2022-12-07T06:08:06;7.20;99.90
2024;DHT22;1016;48.770;9.154;2022-12-07T06:10:32;7.20;99.90
2024;DHT22;1016;48.770;9.154;2022-12-07T06:12:57;7.20;99.90
2024;DHT22;1016;48.770;9.154;2022-12-07T06:15:23;7.20;99.90
2024;DHT22;1016;48.770;9.154;2022-12-07T06:17:48;7.20;99.90
2024;DHT22;1016;48.770;9.154;2022-12-07T06:20:14;7.20;99.90
2024;DHT22;1016;48.770;9.154;2022-12-07T06:22:40;7.30;99.90
2024;DHT22;1016;48.770;9.154;2022-12-07T06:25:05;7.40;99.90
2024;DHT22;1016;48.770;9.154;2022-12-07T06:27:32;7.50;99.90
2024;DHT22;1016;48.770;9.154;2022-12-07T06:29:58;7.50;99.90
2024;DHT22;1016;48.770;9.154;2022-12-07T06:32:24;7.50;99.90
2024;DHT22;1016;48.770;9.154;2022-12-07T06:34:49;7.50;99.90
2024;DHT22;1016;48.770;9.154;2022-12-07T06:37:14;7.50;99.90
2024;DHT22;1016;48.770;9.154;2022-12-07T06:39:40;7.50;99.90
2024;DHT22;1016;48.770;9.154;2022-12-07T06:42:05;7.50;99.90
2024;DHT22;1016;48.770;9.154;2022-12-07T06:44:31;7.60;99.90
2024;DHT22;1016;48.770;9.154;2022-12-07T06:46:57;7.60;99.90
2024;DHT22;1016;48.770;9.154;2022-12-07T06:49:22;7.60;99.90
2024;DHT22;1016;48.770;9.154;2022-12-07T06:51:48;7.60;99.90
2024;DHT22;1016;48.770;9.154;2022-12-07T06:54:14;7.70;99.90
2024;DHT22;1016;48.770;9.154;2022-12-07T06:56:41;7.70;99.90
2024;DHT22;1016;48.770;9.154;2022-12-07T06:59:07;7.70;99.90
2024;DHT22;1016;48.770;9.154;2022-12-07T07:01:34;7.70;99.90
2024;DHT22;1016;48.770;9.154;2022-12-07T07:03:59;7.70;99.90
2024;DHT22;1016;48.770;9.154;2022-12-07T07:06:25;7.70;99.90
2024;DHT22;1016;48.770;9.154;2022-12-07T07:08:51;7.70;99.90
2024;DHT22;1016;48.770;9.154;2022-12-07T07:11:16;7.70;99.90
2024;DHT22;1016;48.770;9.154;2022-12-07T07:13:42;7.70;99.90
2024;DHT22;1016;48.770;9.154;2022-12-07T07:16:08;7.70;99.90
2024;DHT22;1016;48.770;9.154;2022-12-07T07:18:33;7.70;99.90
2024;DHT22;1016;48.770;9.154;2022-12-07T07:20:59;7.80;99.90
2024;DHT22;1016;48.770;9.154;2022-12-07T07:23:24;7.80;99.90
2024;DHT22;1016;48.770;9.154;2022-12-07T07:25:50;7.70;99.90
2024;DHT22;1016;48.770;9.154;2022-12-07T07:28:16;7.70;99.90
2024;DHT22;1016;48.770;9.154;2022-12-07T07:30:42;7.70;99.90
2024;DHT22;1016;48.770;9.154;2022-12-07T07:33:07;7.70;99.90
2024;DHT22;1016;48.770;9.154;2022-12-07T07:35:34;7.80;99.90
2024;DHT22;1016;48.770;9.154;2022-12-07T07:38:00;7.80;99.90
2024;DHT22;1016;48.770;9.154;2022-12-07T07:40:26;7.80;99.90
2024;DHT22;1016;48.770;9.154;2022-12-07T07:42:54;7.80;99.90
2024;DHT22;1016;48.770;9.154;2022-12-07T07:45:20;7.90;99.90
2024;DHT22;1016;48.770;9.154;2022-12-07T07:47:47;7.90;99.90
2024;DHT22;1016;48.770;9.154;2022-12-07T07:50:13;7.90;99.90
2024;DHT22;1016;48.770;9.154;2022-12-07T07:52:39;7.90;99.90
2024;DHT22;1016;48.770;9.154;2022-12-07T07:55:05;7.80;99.90
2024;DHT22;1016;48.770;9.154;2022-12-07T07:57:32;7.90;99.90
2024;DHT22;1016;48.770;9.154;2022-12-07T07:59:58;7.90;99.90
2024;DHT22;1016;48.770;9.154;2022-12-07T08:02:23;7.90;99.90
2024;DHT22;1016;48.770;9.154;2022-12-07T08:04:49;7.90;99.90
2024;DHT22;1016;48.770;9.154;2022-12-07T08:07:15;7.90;99.90
2024;DHT22;1016;48.770;9.154;2022-12-07T08:09:41;7.90;99.90
2024;DHT22;1016;48.770;9.154;2022-12-07T08:12:07;7.90;99.90
2024;DHT22;1016;48.770;9.154;2022-12-07T08:14:33;7.80;99.90
2024;DHT22;1016;48.770;9.154;2022-12-07T08:17:00;7.80;99.90
2024;DHT22;1016;48.770;9.154;2022-12-07T08:19:25;7.80;99.90
2024;DHT22;1016;48.770;9.154;2022-12-07T08:21:51;8.00;99.90
2024;DHT22;1016;48.770;9.154;2022-12-07T08:24:17;7.80;99.90
2024;DHT22;1016;48.770;9.154;2022-12-07T08:26:42;7.80;99.90
2024;DHT22;1016;48.770;9.154;2022-12-07T08:29:08;7.80;99.90
2024;DHT22;1016;48.770;9.154;2022-12-07T08:31:34;7.80;99.90
2024;DHT22;1016;48.770;9.154;2022-12-07T08:33:59;7.70;99.90
2024;DHT22;1016;48.770;9.154;2022-12-07T08:36:27;7.70;99.90
2024;DHT22;1016;48.770;9.154;2022-12-07T08:38:52;7.70;99.90
2024;DHT22;1016;48.770;9.154;2022-12-07T08:41:18;7.70;99.90
2024;DHT22;1016;48.770;9.154;2022-12-07T08:43:43;7.80;99.90
2024;DHT22;1016;48.770;9.154;2022-12-07T08:46:23;7.90;99.90
2024;DHT22;1016;48.770;9.154;2022-12-07T08:48:54;8.00;99.90
2024;DHT22;1016;48.770;9.154;2022-12-07T08:51:21;8.00;99.90
2024;DHT22;1016;48.770;9.154;2022-12-07T08:53:48;8.00;99.90
2024;DHT22;1016;48.770;9.154;2022-12-07T08:56:14;8.10;99.90
2024;DHT22;1016;48.770;9.154;2022-12-07T08:58:40;8.00;99.90
2024;DHT22;1016;48.770;9.154;2022-12-07T09:01:06;8.10;99.90
2024;DHT22;1016;48.770;9.154;2022-12-07T09:03:32;8.10;99.90
2024;DHT22;1016;48.770;9.154;2022-12-07T09:05:58;8.10;99.90
2024;DHT22;1016;48.770;9.154;2022-12-07T09:08:28;8.10;99.90
2024;DHT22;1016;48.770;9.154;2022-12-07T09:10:56;8.40;99.90
2024;DHT22;1016;48.770;9.154;2022-12-07T09:13:21;8.30;99.90
2024;DHT22;1016;48.770;9.154;2022-12-07T09:15:47;8.20;99.90
2024;DHT22;1016;48.770;9.154;2022-12-07T09:18:13;8.10;99.90
2024;DHT22;1016;48.770;9.154;2022-12-07T09:20:38;8.10;99.90
2024;DHT22;1016;48.770;9.154;2022-12-07T09:23:06;8.20;99.90
2024;DHT22;1016;48.770;9.154;2022-12-07T09:25:32;8.30;99.90
2024;DHT22;1016;48.770;9.154;2022-12-07T09:27:58;8.30;99.90
2024;DHT22;1016;48.770;9.154;2022-12-07T09:30:24;8.20;99.90
2024;DHT22;1016;48.770;9.154;2022-12-07T09:32:51;8.10;99.90
2024;DHT22;1016;48.770;9.154;2022-12-07T09:35:17;8.00;99.90
2024;DHT22;1016;48.770;9.154;2022-12-07T09:37:43;8.10;99.90
2024;DHT22;1016;48.770;9.154;2022-12-07T09:40:08;8.10;99.90
2024;DHT22;1016;48.770;9.154;2022-12-07T09:42:39;8.20;99.90
2024;DHT22;1016;48.770;9.154;2022-12-07T09:45:14;8.30;99.90
2024;DHT22;1016;48.770;9.154;2022-12-07T09:47:39;8.40;99.90
2024;DHT22;1016;48.770;9.154;2022-12-07T09:50:12;8.40;99.90
2024;DHT22;1016;48.770;9.154;2022-12-07T09:52:41;8.30;99.90
2024;DHT22;1016;48.770;9.154;2022-12-07T09:55:11;8.40;99.90
2024;DHT22;1016;48.770;9.154;2022-12-07T09:57:37;8.40;99.90
2024;DHT22;1016;48.770;9.154;2022-12-07T10:00:10;8.50;99.90
2024;DHT22;1016;48.770;9.154;2022-12-07T10:02:43;8.50;99.90
2024;DHT22;1016;48.770;9.154;2022-12-07T10:05:44;8.50;99.90
2024;DHT22;1016;48.770;9.154;2022-12-07T10:08:10;8.50;99.90
2024;DHT22;1016;48.770;9.154;2022-12-07T10:10:36;8.40;99.90
2024;DHT22;1016;48.770;9.154;2022-12-07T10:13:06;8.50;99.90
2024;DHT22;1016;48.770;9.154;2022-12-07T10:15:54;8.40;99.90
2024;DHT22;1016;48.770;9.154;2022-12-07T10:20:48;8.50;99.90
2024;DHT22;1016;48.770;9.154;2022-12-07T10:23:16;8.40;99.90
2024;DHT22;1016;48.770;9.154;2022-12-07T10:25:43;8.50;99.90
2024;DHT22;1016;48.770;9.154;2022-12-07T10:33:34;8.50;99.90
2024;DHT22;1016;48.770;9.154;2022-12-07T10:36:01;8.60;99.90
2024;DHT22;1016;48.770;9.154;2022-12-07T10:38:47;8.70;99.90
2024;DHT22;1016;48.770;9.154;2022-12-07T10:41:13;8.60;99.90
2024;DHT22;1016;48.770;9.154;2022-12-07T10:43:47;8.60;99.90
2024;DHT22;1016;48.770;9.154;2022-12-07T10:46:43;8.60;99.90
2024;DHT22;1016;48.770;9.154;2022-12-07T10:49:44;8.70;99.90
2024;DHT22;1016;48.770;9.154;2022-12-07T10:52:21;8.70;99.90
2024;DHT22;1016;48.770;9.154;2022-12-07T10:55:08;8.80;99.90
2024;DHT22;1016;48.770;9.154;2022-12-07T11:00:21;8.80;99.90
2024;DHT22;1016;48.770;9.154;2022-12-07T11:05:50;8.90;99.90
2024;DHT22;1016;48.770;9.154;2022-12-07T11:11:17;8.90;99.90
2024;DHT22;1016;48.770;9.154;2022-12-07T11:22:41;9.10;99.90
2024;DHT22;1016;48.770;9.154;2022-12-07T11:28:18;9.20;99.90
2024;DHT22;1016;48.770;9.154;2022-12-07T11:33:49;9.00;99.90
2024;DHT22;1016;48.770;9.154;2022-12-07T11:36:37;9.00;99.90
2024;DHT22;1016;48.770;9.154;2022-12-07T11:41:56;8.80;99.90
2024;DHT22;1016;48.770;9.154;2022-12-07T11:47:17;8.80;99.90
2024;DHT22;1016;48.770;9.154;2022-12-07T11:49:51;8.90;99.90
2024;DHT22;1016;48.770;9.154;2022-12-07T11:55:21;9.00;99.90
2024;DHT22;1016;48.770;9.154;2022-12-07T11:57:52;9.00;99.90
2024;DHT22;1016;48.770;9.154;2022-12-07T12:00:20;9.10;99.90
2024;DHT22;1016;48.770;9.154;2022-12-07T12:03:13;8.90;99.90
2024;DHT22;1016;48.770;9.154;2022-12-07T12:05:40;8.90;99.90
2024;DHT22;1016;48.770;9.154;2022-12-07T12:08:19;8.60;99.90
2024;DHT22;1016;48.770;9.154;2022-12-07T12:14:10;8.70;99.90
2024;DHT22;1016;48.770;9.154;2022-12-07T12:20:03;8.60;99.90
2024;DHT22;1016;48.770;9.154;2022-12-07T12:22:54;8.60;99.90
2024;DHT22;1016;48.770;9.154;2022-12-07T12:27:54;8.60;99.90
2024;DHT22;1016;48.770;9.154;2022-12-07T12:30:39;8.50;99.90
2024;DHT22;1016;48.770;9.154;2022-12-07T12:33:26;8.20;99.90
2024;DHT22;1016;48.770;9.154;2022-12-07T12:37:02;8.20;99.90
2024;DHT22;1016;48.770;9.154;2022-12-07T12:39:10;8.30;99.90
2024;DHT22;1016;48.770;9.154;2022-12-07T12:49:30;8.10;99.90
2024;DHT22;1016;48.770;9.154;2022-12-07T12:52:00;8.30;99.90
2024;DHT22;1016;48.770;9.154;2022-12-07T12:54:30;8.30;99.90
2024;DHT22;1016;48.770;9.154;2022-12-07T12:57:29;8.10;99.90
2024;DHT22;1016;48.770;9.154;2022-12-07T13:21:00;8.40;99.90
2024;DHT22;1016;48.770;9.154;2022-12-07T13:26:32;8.40;99.90
2024;DHT22;1016;48.770;9.154;2022-12-07T13:31:39;8.60;99.90
2024;DHT22;1016;48.770;9.154;2022-12-07T13:34:34;8.50;99.90
2024;DHT22;1016;48.770;9.154;2022-12-07T13:37:04;8.60;99.90
2024;DHT22;1016;48.770;9.154;2022-12-07T13:39:48;8.60;99.90
2024;DHT22;1016;48.770;9.154;2022-12-07T13:44:52;8.60;99.90
2024;DHT22;1016;48.770;9.154;2022-12-07T13:47:38;8.60;99.90
2024;DHT22;1016;48.770;9.154;2022-12-07T13:50:27;8.70;99.90
2024;DHT22;1016;48.770;9.154;2022-12-07T13:52:58;8.60;99.90
2024;DHT22;1016;48.770;9.154;2022-12-07T13:55:25;8.50;99.90
2024;DHT22;1016;48.770;9.154;2022-12-07T13:57:54;8.30;99.90
2024;DHT22;1016;48.770;9.154;2022-12-07T14:00:28;8.20;99.90
2024;DHT22;1016;48.770;9.154;2022-12-07T14:05:36;8.20;99.90
2024;DHT22;1016;48.770;9.154;2022-12-07T14:08:06;8.30;99.90
2024;DHT22;1016;48.770;9.154;2022-12-07T14:13:38;8.40;99.90
2024;DHT22;1016;48.770;9.154;2022-12-07T14:18:54;8.20;99.90
2024;DHT22;1016;48.770;9.154;2022-12-07T14:21:23;8.20;99.90
2024;DHT22;1016;48.770;9.154;2022-12-07T14:26:33;8.20;99.90
2024;DHT22;1016;48.770;9.154;2022-12-07T14:29:22;8.10;99.90
2024;DHT22;1016;48.770;9.154;2022-12-07T14:31:48;8.10;99.90
2024;DHT22;1016;48.770;9.154;2022-12-07T14:34:14;8.20;99.90
2024;DHT22;1016;48.770;9.154;2022-12-07T14:36:39;8.20;99.90
2024;DHT22;1016;48.770;9.154;2022-12-07T14:39:05;8.20;99.90
2024;DHT22;1016;48.770;9.154;2022-12-07T14:41:30;8.30;99.90
2024;DHT22;1016;48.770;9.154;2022-12-07T14:44:15;8.40;99.90
2024;DHT22;1016;48.770;9.154;2022-12-07T14:46:40;8.50;99.90
2024;DHT22;1016;48.770;9.154;2022-12-07T14:49:06;8.40;99.90
2024;DHT22;1016;48.770;9.154;2022-12-07T14:51:32;8.30;99.90
2024;DHT22;1016;48.770;9.154;2022-12-07T14:53:58;8.30;99.90
2024;DHT22;1016;48.770;9.154;2022-12-07T14:56:25;8.30;99.90
2024;DHT22;1016;48.770;9.154;2022-12-07T14:58:50;8.30;99.90
2024;DHT22;1016;48.770;9.154;2022-12-07T15:01:16;8.30;99.90
2024;DHT22;1016;48.770;9.154;2022-12-07T15:03:41;8.30;99.90
2024;DHT22;1016;48.770;9.154;2022-12-07T15:06:07;8.40;99.90
2024;DHT22;1016;48.770;9.154;2022-12-07T15:08:33;8.40;99.90
2024;DHT22;1016;48.770;9.154;2022-12-07T15:10:59;8.30;99.90
2024;DHT22;1016;48.770;9.154;2022-12-07T15:13:24;8.40;99.90
2024;DHT22;1016;48.770;9.154;2022-12-07T15:16:14;8.20;99.90
2024;DHT22;1016;48.770;9.154;2022-12-07T15:18:41;8.10;99.90
2024;DHT22;1016;48.770;9.154;2022-12-07T15:21:12;8.10;99.90
2024;DHT22;1016;48.770;9.154;2022-12-07T15:23:39;8.10;99.90
2024;DHT22;1016;48.770;9.154;2022-12-07T15:26:04;8.40;99.90
2024;DHT22;1016;48.770;9.154;2022-12-07T15:28:30;8.10;99.90
2024;DHT22;1016;48.770;9.154;2022-12-07T15:30:55;8.10;99.90
2024;DHT22;1016;48.770;9.154;2022-12-07T15:33:21;8.20;99.90
2024;DHT22;1016;48.770;9.154;2022-12-07T15:35:46;8.10;99.90
2024;DHT22;1016;48.770;9.154;2022-12-07T15:38:12;8.10;99.90
2024;DHT22;1016;48.770;9.154;2022-12-07T15:40:37;8.20;99.90
2024;DHT22;1016;48.770;9.154;2022-12-07T15:43:03;8.20;99.90
2024;DHT22;1016;48.770;9.154;2022-12-07T15:45:28;8.10;99.90
2024;DHT22;1016;48.770;9.154;2022-12-07T15:47:54;8.00;99.90
2024;DHT22;1016;48.770;9.154;2022-12-07T15:50:21;8.00;99.90
2024;DHT22;1016;48.770;9.154;2022-12-07T15:52:46;8.00;99.90
2024;DHT22;1016;48.770;9.154;2022-12-07T15:55:12;8.10;99.90
2024;DHT22;1016;48.770;9.154;2022-12-07T15:57:38;8.00;99.90
2024;DHT22;1016;48.770;9.154;2022-12-07T16:00:05;8.00;99.90
2024;DHT22;1016;48.770;9.154;2022-12-07T16:02:31;7.80;99.90
2024;DHT22;1016;48.770;9.154;2022-12-07T16:04:56;7.70;99.90
2024;DHT22;1016;48.770;9.154;2022-12-07T16:07:22;7.80;99.90
2024;DHT22;1016;48.770;9.154;2022-12-07T16:09:48;7.80;99.90
2024;DHT22;1016;48.770;9.154;2022-12-07T16:12:15;7.80;99.90
2024;DHT22;1016;48.770;9.154;2022-12-07T16:14:41;7.90;99.90
2024;DHT22;1016;48.770;9.154;2022-12-07T16:17:07;7.90;99.90
2024;DHT22;1016;48.770;9.154;2022-12-07T16:19:34;7.90;99.90
2024;DHT22;1016;48.770;9.154;2022-12-07T16:22:00;7.90;99.90
2024;DHT22;1016;48.770;9.154;2022-12-07T16:24:26;7.80;99.90
2024;DHT22;1016;48.770;9.154;2022-12-07T16:26:52;7.80;99.90
2024;DHT22;1016;48.770;9.154;2022-12-07T16:29:20;7.70;99.90
2024;DHT22;1016;48.770;9.154;2022-12-07T16:31:46;7.80;99.90
2024;DHT22;1016;48.770;9.154;2022-12-07T16:34:12;7.70;99.90
2024;DHT22;1016;48.770;9.154;2022-12-07T16:36:37;7.70;99.90
2024;DHT22;1016;48.770;9.154;2022-12-07T16:39:03;7.80;99.90
2024;DHT22;1016;48.770;9.154;2022-12-07T16:41:29;7.90;99.90
2024;DHT22;1016;48.770;9.154;2022-12-07T16:43:55;7.90;99.90
2024;DHT22;1016;48.770;9.154;2022-12-07T16:46:20;7.90;99.90
2024;DHT22;1016;48.770;9.154;2022-12-07T16:48:46;7.80;99.90
2024;DHT22;1016;48.770;9.154;2022-12-07T16:51:13;7.80;99.90
2024;DHT22;1016;48.770;9.154;2022-12-07T16:53:41;7.70;99.90
2024;DHT22;1016;48.770;9.154;2022-12-07T16:56:12;7.60;99.90
2024;DHT22;1016;48.770;9.154;2022-12-07T16:58:38;7.50;99.90
2024;DHT22;1016;48.770;9.154;2022-12-07T17:01:15;7.40;99.90
2024;DHT22;1016;48.770;9.154;2022-12-07T17:03:41;7.30;99.90
2024;DHT22;1016;48.770;9.154;2022-12-07T17:06:24;7.40;99.90
2024;DHT22;1016;48.770;9.154;2022-12-07T17:08:51;7.30;99.90
2024;DHT22;1016;48.770;9.154;2022-12-07T17:11:20;7.30;99.90
2024;DHT22;1016;48.770;9.154;2022-12-07T17:13:46;7.30;99.90
2024;DHT22;1016;48.770;9.154;2022-12-07T17:16:30;7.30;99.90
2024;DHT22;1016;48.770;9.154;2022-12-07T17:18:56;7.30;99.90
2024;DHT22;1016;48.770;9.154;2022-12-07T17:21:23;7.20;99.90
2024;DHT22;1016;48.770;9.154;2022-12-07T17:23:49;7.30;99.90
2024;DHT22;1016;48.770;9.154;2022-12-07T17:26:21;7.30;99.90
2024;DHT22;1016;48.770;9.154;2022-12-07T17:28:47;7.30;99.90
2024;DHT22;1016;48.770;9.154;2022-12-07T17:31:14;7.30;99.90
2024;DHT22;1016;48.770;9.154;2022-12-07T17:33:40;7.30;99.90
2024;DHT22;1016;48.770;9.154;2022-12-07T17:36:14;7.30;99.90
2024;DHT22;1016;48.770;9.154;2022-12-07T17:38:40;7.30;99.90
2024;DHT22;1016;48.770;9.154;2022-12-07T17:41:13;7.40;99.90
2024;DHT22;1016;48.770;9.154;2022-12-07T17:44:00;7.50;99.90
2024;DHT22;1016;48.770;9.154;2022-12-07T17:46:26;7.50;99.90
2024;DHT22;1016;48.770;9.154;2022-12-07T17:48:54;7.50;99.90
2024;DHT22;1016;48.770;9.154;2022-12-07T17:51:19;7.60;99.90
2024;DHT22;1016;48.770;9.154;2022-12-07T17:54:04;7.60;99.90
2024;DHT22;1016;48.770;9.154;2022-12-07T17:56:29;7.70;99.90
2024;DHT22;1016;48.770;9.154;2022-12-07T17:58:55;7.80;99.90
2024;DHT22;1016;48.770;9.154;2022-12-07T18:01:20;7.80;99.90
2024;DHT22;1016;48.770;9.154;2022-12-07T18:03:45;7.90;99.90
2024;DHT22;1016;48.770;9.154;2022-12-07T18:06:11;7.90;99.90
2024;DHT22;1016;48.770;9.154;2022-12-07T18:08:36;7.80;99.90
2024;DHT22;1016;48.770;9.154;2022-12-07T18:11:04;7.70;99.90
2024;DHT22;1016;48.770;9.154;2022-12-07T18:13:30;7.60;99.90
2024;DHT22;1016;48.770;9.154;2022-12-07T18:16:04;7.70;99.90
2024;DHT22;1016;48.770;9.154;2022-12-07T18:18:30;7.70;99.90
2024;DHT22;1016;48.770;9.154;2022-12-07T18:20:55;7.70;99.90
2024;DHT22;1016;48.770;9.154;2022-12-07T18:23:21;7.70;99.90
2024;DHT22;1016;48.770;9.154;2022-12-07T18:25:50;7.80;99.90
2024;DHT22;1016;48.770;9.154;2022-12-07T18:28:16;7.70;99.90
2024;DHT22;1016;48.770;9.154;2022-12-07T18:30:42;7.80;99.90
2024;DHT22;1016;48.770;9.154;2022-12-07T18:33:16;7.70;99.90